createdAt,value
2023-02-15T00:00:45.954Z,19.40
2023-02-15T00:03:14.444Z,21.53
2023-02-15T00:05:42.907Z,17.80
2023-02-15T00:08:13.140Z,19.60
2023-02-15T00:10:41.745Z,23.27
2023-02-15T00:13:10.256Z,20.00
2023-02-15T00:15:38.313Z,23.27
2023-02-15T00:18:07.964Z,19.27
2023-02-15T00:20:37.048Z,23.30
2023-02-15T00:23:07.141Z,18.27
2023-02-15T00:25:35.195Z,27.27
2023-02-15T00:28:06.681Z,20.50
2023-02-15T00:30:34.941Z,31.73
2023-02-15T00:33:03.687Z,34.03
2023-02-15T00:35:33.834Z,26.07
2023-02-15T00:38:01.993Z,17.90
2023-02-15T00:40:30.102Z,22.00
2023-02-15T00:42:59.747Z,18.67
2023-02-15T00:45:27.817Z,18.90
2023-02-15T00:47:55.939Z,17.80
2023-02-15T00:50:24.316Z,37.83
2023-02-15T00:52:53.817Z,19.90
2023-02-15T00:55:22.147Z,22.50
2023-02-15T00:57:50.435Z,18.57
2023-02-15T01:00:20.088Z,18.70
2023-02-15T01:02:48.531Z,19.33
2023-02-15T01:05:17.300Z,20.87
2023-02-15T01:07:45.507Z,18.80
2023-02-15T01:10:15.426Z,18.37
2023-02-15T01:12:43.578Z,16.73
2023-02-15T01:15:11.915Z,18.57
2023-02-15T01:17:40.296Z,19.17
2023-02-15T01:20:10.005Z,22.17
2023-02-15T01:22:38.093Z,21.20
2023-02-15T01:25:07.584Z,18.57
2023-02-15T01:27:37.820Z,21.50
2023-02-15T01:30:07.152Z,24.07
2023-02-15T01:32:35.380Z,17.30
2023-02-15T01:35:04.311Z,21.73
2023-02-15T01:37:33.078Z,25.47
2023-02-15T01:40:02.242Z,18.57
2023-02-15T01:42:32.391Z,38.00
2023-02-15T01:45:04.106Z,20.17
2023-02-15T01:47:38.007Z,30.40
2023-02-15T01:50:12.036Z,17.17
2023-02-15T01:52:43.328Z,29.97
2023-02-15T01:55:13.872Z,17.47
2023-02-15T01:57:42.921Z,19.47
2023-02-15T02:00:15.392Z,20.63
2023-02-15T02:02:46.264Z,35.93
2023-02-15T02:05:15.531Z,22.37
2023-02-15T02:07:49.242Z,37.73
2023-02-15T02:10:23.512Z,24.67
2023-02-15T02:12:55.174Z,20.27
2023-02-15T02:15:35.507Z,18.63
2023-02-15T02:18:17.049Z,18.27
2023-02-15T02:21:36.271Z,17.97
2023-02-15T02:24:26.310Z,32.33
2023-02-15T02:27:20.876Z,30.50
2023-02-15T02:30:27.104Z,16.83
2023-02-15T02:33:14.328Z,29.63
2023-02-15T02:35:50.949Z,22.53
2023-02-15T02:38:29.300Z,27.57
2023-02-15T02:41:07.859Z,20.00
2023-02-15T02:43:43.186Z,22.23
2023-02-15T02:46:20.583Z,23.00
2023-02-15T02:48:51.315Z,20.30
2023-02-15T02:51:22.632Z,16.80
2023-02-15T02:53:54.353Z,18.23
2023-02-15T02:56:29.738Z,19.17
2023-02-15T02:59:03.353Z,29.70
2023-02-15T03:01:35.832Z,19.57
2023-02-15T03:04:10.643Z,19.27
2023-02-15T03:06:43.975Z,18.27
2023-02-15T03:09:22.743Z,28.00
2023-02-15T03:11:52.763Z,23.97
2023-02-15T03:14:23.536Z,24.17
2023-02-15T03:16:54.140Z,17.97
2023-02-15T03:19:29.772Z,22.27
2023-02-15T03:22:10.528Z,18.37
2023-02-15T03:24:44.458Z,20.67
2023-02-15T03:27:18.418Z,18.70
2023-02-15T03:29:49.470Z,18.63
2023-02-15T03:32:19.015Z,18.13
2023-02-15T03:34:49.356Z,19.50
2023-02-15T03:37:25.014Z,20.90
2023-02-15T03:39:57.521Z,23.67
2023-02-15T03:42:30.839Z,22.00
2023-02-15T03:45:03.836Z,19.97
2023-02-15T03:47:36.315Z,20.37
2023-02-15T03:50:32.303Z,19.73
2023-02-15T03:53:03.042Z,22.63
2023-02-15T03:55:31.782Z,23.70
2023-02-15T03:58:17.480Z,23.10
2023-02-15T04:01:11.193Z,19.53
2023-02-15T04:03:43.771Z,20.30
2023-02-15T04:06:13.667Z,23.53
2023-02-15T04:08:58.935Z,20.87
2023-02-15T04:11:27.173Z,26.27
2023-02-15T04:13:57.770Z,21.37
2023-02-15T04:16:25.275Z,21.43
2023-02-15T04:19:11.140Z,23.20
2023-02-15T04:21:57.943Z,23.47
2023-02-15T04:24:43.189Z,23.90
2023-02-15T04:27:11.468Z,26.27
2023-02-15T04:29:39.779Z,21.33
2023-02-15T04:32:08.293Z,25.83
2023-02-15T04:34:38.171Z,24.43
2023-02-15T04:37:08.587Z,22.33
2023-02-15T04:39:36.751Z,22.90
2023-02-15T04:42:05.177Z,20.73
2023-02-15T04:44:33.442Z,21.07
2023-02-15T04:47:01.698Z,21.73
2023-02-15T04:49:30.018Z,22.80
2023-02-15T04:51:58.301Z,22.10
2023-02-15T04:54:28.263Z,26.73
2023-02-15T04:56:57.735Z,25.60
2023-02-15T04:59:26.077Z,22.23
2023-02-15T05:01:54.512Z,22.63
2023-02-15T05:04:23.045Z,22.50
2023-02-15T05:06:53.600Z,21.20
2023-02-15T05:09:22.221Z,23.53
2023-02-15T05:11:52.134Z,24.17
2023-02-15T05:14:20.783Z,20.47
2023-02-15T05:16:49.217Z,24.13
2023-02-15T05:19:17.795Z,22.90
2023-02-15T05:21:46.148Z,24.63
2023-02-15T05:24:31.892Z,23.27
2023-02-15T05:27:18.718Z,22.63
2023-02-15T05:29:47.009Z,31.40
2023-02-15T05:32:16.171Z,25.33
2023-02-15T05:34:44.441Z,23.33
2023-02-15T05:37:12.641Z,24.57
2023-02-15T05:39:40.822Z,22.83
2023-02-15T05:42:10.756Z,30.50
2023-02-15T05:44:39.124Z,24.73
2023-02-15T05:47:08.377Z,26.37
2023-02-15T05:49:37.010Z,24.90
2023-02-15T05:52:05.817Z,25.40
2023-02-15T05:54:36.067Z,30.93
2023-02-15T05:57:04.204Z,30.23
2023-02-15T05:59:36.923Z,24.73
2023-02-15T06:02:08.189Z,24.70
2023-02-15T06:04:36.430Z,30.40
2023-02-15T06:07:06.074Z,25.20
2023-02-15T06:09:34.774Z,22.40
2023-02-15T06:12:04.285Z,24.47
2023-02-15T06:14:34.060Z,23.90
2023-02-15T06:17:02.510Z,25.83
2023-02-15T06:19:31.154Z,24.07
2023-02-15T06:21:59.510Z,30.00
2023-02-15T06:24:28.079Z,28.50
2023-02-15T06:26:56.276Z,26.00
2023-02-15T06:29:26.867Z,24.37
2023-02-15T06:31:56.921Z,25.97
2023-02-15T06:34:25.106Z,23.60
2023-02-15T06:36:53.266Z,24.90
2023-02-15T06:39:21.618Z,27.77
2023-02-15T06:41:49.789Z,24.50
2023-02-15T06:44:18.390Z,24.23
2023-02-15T06:46:46.808Z,23.47
2023-02-15T06:49:16.576Z,25.20
2023-02-15T06:51:44.872Z,25.03
2023-02-15T06:54:13.576Z,26.37
2023-02-15T06:56:41.769Z,27.53
2023-02-15T06:59:10.256Z,29.97
2023-02-15T07:01:39.302Z,27.60
2023-02-15T07:04:07.584Z,24.97
2023-02-15T07:06:37.573Z,28.37
2023-02-15T07:09:06.541Z,30.73
2023-02-15T07:11:52.150Z,32.47
2023-02-15T07:14:21.020Z,24.23
2023-02-15T07:16:49.092Z,25.77
2023-02-15T07:19:17.461Z,32.07
2023-02-15T07:21:47.789Z,27.90
2023-02-15T07:24:16.560Z,27.67
2023-02-15T07:26:44.680Z,25.73
2023-02-15T07:29:13.041Z,29.13
2023-02-15T07:31:41.154Z,29.70
2023-02-15T07:34:09.447Z,31.80
2023-02-15T07:36:37.617Z,38.60
2023-02-15T07:39:07.188Z,28.07
2023-02-15T07:41:38.193Z,33.90
2023-02-15T07:44:07.320Z,31.90
2023-02-15T07:46:35.495Z,30.43
2023-02-15T07:49:05.029Z,30.13
2023-02-15T07:51:33.499Z,33.07
2023-02-15T07:54:03.390Z,29.53
2023-02-15T07:56:35.064Z,35.73
2023-02-15T07:59:06.305Z,31.23
2023-02-15T08:01:39.496Z,28.33
2023-02-15T08:04:12.194Z,29.03
2023-02-15T08:06:40.826Z,25.73
2023-02-15T08:09:11.549Z,24.70
2023-02-15T08:11:41.951Z,28.77
2023-02-15T08:14:12.036Z,26.23
2023-02-15T08:16:42.975Z,28.57
2023-02-15T08:19:14.128Z,26.90
2023-02-15T08:21:44.276Z,28.50
2023-02-15T08:24:14.018Z,28.33
2023-02-15T08:26:46.121Z,27.10
2023-02-15T08:29:16.177Z,27.77
2023-02-15T08:31:44.668Z,27.37
2023-02-15T08:34:16.275Z,28.07
2023-02-15T08:36:46.462Z,28.93
2023-02-15T08:39:16.417Z,30.37
2023-02-15T08:41:47.541Z,28.83
2023-02-15T08:44:20.132Z,27.10
2023-02-15T08:46:50.392Z,28.30
2023-02-15T08:49:20.237Z,28.70
2023-02-15T08:51:49.041Z,29.57
2023-02-15T08:54:19.754Z,26.63
2023-02-15T08:56:49.818Z,28.73
2023-02-15T08:59:20.588Z,28.87
2023-02-15T09:01:49.940Z,28.40
2023-02-15T09:04:18.741Z,30.67
2023-02-15T09:06:49.563Z,32.27
2023-02-15T09:09:18.488Z,30.40
2023-02-15T09:11:52.392Z,29.93
2023-02-15T09:14:25.665Z,29.87
2023-02-15T09:16:55.241Z,27.57
2023-02-15T09:19:25.287Z,32.67
2023-02-15T09:21:55.185Z,27.27
2023-02-15T09:24:23.980Z,31.03
2023-02-15T09:26:53.952Z,25.50
2023-02-15T09:29:23.820Z,27.23
2023-02-15T09:31:54.731Z,29.33
2023-02-15T09:34:25.607Z,26.40
2023-02-15T09:36:54.708Z,29.33
2023-02-15T09:39:25.836Z,35.30
2023-02-15T09:42:13.978Z,34.00
2023-02-15T09:44:58.339Z,31.00
2023-02-15T09:47:41.299Z,28.90
2023-02-15T09:50:20.278Z,28.27
2023-02-15T09:53:04.539Z,31.50
2023-02-15T09:55:51.182Z,27.53
2023-02-15T09:58:27.901Z,32.57
2023-02-15T10:01:04.578Z,31.47
2023-02-15T10:03:50.337Z,32.07
2023-02-15T10:06:34.012Z,34.23
2023-02-15T10:09:14.138Z,30.83
2023-02-15T10:11:59.057Z,29.60
2023-02-15T10:15:02.048Z,31.70
2023-02-15T10:17:47.982Z,30.30
2023-02-15T10:20:28.270Z,34.80
2023-02-15T10:23:19.817Z,33.30
2023-02-15T10:25:54.079Z,32.67
2023-02-15T10:28:29.398Z,30.23
2023-02-15T10:31:04.602Z,32.73
2023-02-15T10:33:41.401Z,31.90
2023-02-15T10:36:24.325Z,32.03
2023-02-15T10:38:59.459Z,31.37
2023-02-15T10:41:40.696Z,37.50
2023-02-15T10:44:24.751Z,35.20
2023-02-15T10:47:12.905Z,32.50
2023-02-15T10:49:55.755Z,32.40
2023-02-15T10:52:35.810Z,32.93
2023-02-15T10:55:14.946Z,32.60
2023-02-15T10:57:59.720Z,31.67
2023-02-15T11:00:40.360Z,30.70
2023-02-15T11:03:34.773Z,30.30
2023-02-15T11:06:13.371Z,35.10
2023-02-15T11:08:47.605Z,31.47
2023-02-15T11:11:23.964Z,32.67
2023-02-15T11:13:57.578Z,30.53
2023-02-15T11:16:30.828Z,33.13
2023-02-15T11:19:04.545Z,35.23
2023-02-15T11:21:40.093Z,32.10
2023-02-15T11:24:13.923Z,34.27
2023-02-15T11:26:45.721Z,34.03
2023-02-15T11:29:21.263Z,31.37
2023-02-15T11:31:55.684Z,30.83
2023-02-15T11:34:30.013Z,28.67
2023-02-15T11:37:02.579Z,30.83
2023-02-15T11:39:33.097Z,29.80
2023-02-15T11:42:07.157Z,30.90
2023-02-15T11:44:38.230Z,29.33
2023-02-15T11:47:12.607Z,31.10
2023-02-15T11:49:41.233Z,33.57
2023-02-15T11:52:15.841Z,30.17
2023-02-15T11:54:46.690Z,30.60
2023-02-15T11:57:23.078Z,28.27
2023-02-15T11:59:58.372Z,29.13
2023-02-15T12:02:28.635Z,28.70
2023-02-15T12:05:00.721Z,29.17
2023-02-15T12:07:35.475Z,29.87
2023-02-15T12:10:12.986Z,25.77
2023-02-15T12:12:41.415Z,28.47
2023-02-15T12:15:11.558Z,30.57
2023-02-15T12:17:42.731Z,26.50
2023-02-15T12:20:27.391Z,27.27
2023-02-15T12:23:03.542Z,26.23
2023-02-15T12:25:38.165Z,26.50
2023-02-15T12:28:19.403Z,26.20
2023-02-15T12:30:48.880Z,26.70
2023-02-15T12:33:22.948Z,27.33
2023-02-15T12:36:00.696Z,27.50
2023-02-15T12:38:32.166Z,25.50
2023-02-15T12:41:02.883Z,26.47
2023-02-15T12:43:35.623Z,25.70
2023-02-15T12:46:23.371Z,27.30
2023-02-15T12:49:09.133Z,27.33
2023-02-15T12:51:52.332Z,27.70
2023-02-15T12:54:41.505Z,27.70
2023-02-15T12:57:23.483Z,29.97
2023-02-15T12:59:53.824Z,28.90
2023-02-15T13:02:32.420Z,29.47
2023-02-15T13:05:10.338Z,27.87
2023-02-15T13:07:39.385Z,27.93
2023-02-15T13:10:23.784Z,28.53
2023-02-15T13:12:55.277Z,29.73
2023-02-15T13:15:35.463Z,27.07
2023-02-15T13:18:08.987Z,27.77
2023-02-15T13:20:44.148Z,26.90
2023-02-15T13:23:28.499Z,29.73
2023-02-15T13:26:00.950Z,26.70
2023-02-15T13:28:42.149Z,25.53
2023-02-15T13:31:16.180Z,26.50
2023-02-15T13:33:48.965Z,25.23
2023-02-15T13:36:26.437Z,25.33
2023-02-15T13:39:11.886Z,24.30
2023-02-15T13:41:53.941Z,24.03
2023-02-15T13:44:35.399Z,25.63
2023-02-15T13:47:18.782Z,24.80
2023-02-15T13:50:05.336Z,24.47
2023-02-15T13:52:42.784Z,24.03
2023-02-15T13:55:29.182Z,26.73
2023-02-15T13:58:25.360Z,23.57
2023-02-15T14:01:06.928Z,24.63
2023-02-15T14:04:02.572Z,24.73
2023-02-15T14:06:54.536Z,26.47
2023-02-15T14:09:33.552Z,24.07
2023-02-15T14:12:20.363Z,24.53
2023-02-15T14:15:10.552Z,24.90
2023-02-15T14:17:50.129Z,23.53
2023-02-15T14:20:25.914Z,24.93
2023-02-15T14:23:08.012Z,25.37
2023-02-15T14:25:42.682Z,24.03
2023-02-15T14:28:15.798Z,24.70
2023-02-15T14:30:49.260Z,24.83
2023-02-15T14:33:35.246Z,24.47
2023-02-15T14:36:07.954Z,27.67
2023-02-15T14:39:06.736Z,26.03
2023-02-15T14:41:41.992Z,25.80
2023-02-15T14:44:18.158Z,26.30
2023-02-15T14:46:57.598Z,25.37
2023-02-15T14:49:28.790Z,24.57
2023-02-15T14:52:02.940Z,24.87
2023-02-15T14:54:58.617Z,23.70
2023-02-15T14:57:35.921Z,25.33
2023-02-15T15:00:34.786Z,23.53
2023-02-15T15:03:14.198Z,23.93
2023-02-15T15:05:52.997Z,26.23
2023-02-15T15:08:31.530Z,24.30
2023-02-15T15:11:43.737Z,24.57
2023-02-15T15:14:34.396Z,24.73
2023-02-15T15:17:04.989Z,23.03
2023-02-15T15:20:15.178Z,24.57
2023-02-15T15:22:45.116Z,25.60
2023-02-15T15:25:46.233Z,25.10
2023-02-15T15:28:47.328Z,25.30
2023-02-15T15:31:23.170Z,26.23
2023-02-15T15:34:21.573Z,25.47
2023-02-15T15:37:33.710Z,37.37
2023-02-15T15:40:43.589Z,25.57
2023-02-15T15:43:35.082Z,26.00
2023-02-15T15:46:16.317Z,24.17
2023-02-15T15:48:44.751Z,24.37
2023-02-15T15:51:17.389Z,23.47
2023-02-15T15:53:51.511Z,25.47
2023-02-15T15:56:26.134Z,25.17
2023-02-15T15:58:58.361Z,25.73
2023-02-15T16:01:29.756Z,24.07
2023-02-15T16:04:00.303Z,22.97
2023-02-15T16:06:33.132Z,24.93
2023-02-15T16:09:21.051Z,24.60
2023-02-15T16:11:51.589Z,25.63
2023-02-15T16:14:28.905Z,26.20
2023-02-15T16:17:00.280Z,29.40
2023-02-15T16:19:32.235Z,26.03
2023-02-15T16:22:02.713Z,26.87
2023-02-15T16:24:54.412Z,27.20
2023-02-15T16:27:37.378Z,29.07
2023-02-15T16:30:26.767Z,27.77
2023-02-15T16:32:57.936Z,26.67
2023-02-15T16:35:26.091Z,28.63
2023-02-15T16:37:54.118Z,34.67
2023-02-15T16:40:41.261Z,30.90
2023-02-15T16:43:17.192Z,28.37
2023-02-15T16:45:46.080Z,28.10
2023-02-15T16:48:21.194Z,29.87
2023-02-15T16:50:53.505Z,28.43
2023-02-15T16:53:25.919Z,28.13
2023-02-15T16:55:57.632Z,28.70
2023-02-15T16:58:32.036Z,31.00
2023-02-15T17:01:02.635Z,30.87
2023-02-15T17:03:32.410Z,30.10
2023-02-15T17:06:05.128Z,29.87
2023-02-15T17:08:35.439Z,30.93
2023-02-15T17:11:15.477Z,30.40
2023-02-15T17:14:23.302Z,31.33
2023-02-15T17:16:55.124Z,30.93
2023-02-15T17:19:27.362Z,31.77
2023-02-15T17:21:57.751Z,33.40
2023-02-15T17:24:35.873Z,34.17
2023-02-15T17:27:12.665Z,33.20
2023-02-15T17:29:43.704Z,32.47
2023-02-15T17:32:22.660Z,35.17
2023-02-15T17:35:11.336Z,33.97
2023-02-15T17:37:48.838Z,34.57
2023-02-15T17:40:25.883Z,35.07
2023-02-15T17:42:57.350Z,35.07
2023-02-15T17:45:32.731Z,35.50
2023-02-15T17:48:05.594Z,34.20
2023-02-15T17:50:34.642Z,35.40
2023-02-15T17:53:03.369Z,36.43
2023-02-15T17:55:36.401Z,36.43
2023-02-15T17:58:09.361Z,37.27
2023-02-15T18:00:58.343Z,36.23
2023-02-15T18:03:48.252Z,37.83
2023-02-15T18:06:34.311Z,37.13
2023-02-15T18:09:19.518Z,40.93
2023-02-15T18:11:50.887Z,38.53
2023-02-15T18:14:21.936Z,42.87
2023-02-15T18:16:50.523Z,35.77
2023-02-15T18:19:21.475Z,36.90
2023-02-15T18:21:50.211Z,37.60
2023-02-15T18:24:21.028Z,39.10
2023-02-15T18:26:51.004Z,37.53
2023-02-15T18:29:22.861Z,40.37
2023-02-15T18:31:56.006Z,38.83
2023-02-15T18:34:28.346Z,39.40
2023-02-15T18:36:59.264Z,40.57
2023-02-15T18:39:45.781Z,40.37
2023-02-15T18:42:21.291Z,39.40
2023-02-15T18:44:52.390Z,40.57
2023-02-15T18:47:24.078Z,37.63
2023-02-15T18:49:52.689Z,41.27
2023-02-15T18:52:23.372Z,37.90
2023-02-15T18:54:54.046Z,37.30
2023-02-15T18:57:22.301Z,39.63
2023-02-15T18:59:52.028Z,40.60
2023-02-15T19:02:21.185Z,41.33
2023-02-15T19:04:49.605Z,38.60
2023-02-15T19:07:21.636Z,41.33
2023-02-15T19:09:53.735Z,39.27
2023-02-15T19:12:22.210Z,41.90
2023-02-15T19:14:53.384Z,42.10
2023-02-15T19:17:23.244Z,43.03
2023-02-15T19:19:52.658Z,41.97
2023-02-15T19:22:29.896Z,43.47
2023-02-15T19:25:01.043Z,43.40
2023-02-15T19:27:31.839Z,45.77
2023-02-15T19:30:03.160Z,45.10
2023-02-15T19:32:32.005Z,41.83
2023-02-15T19:35:00.172Z,44.17
2023-02-15T19:37:36.315Z,41.23
2023-02-15T19:40:05.354Z,43.63
2023-02-15T19:42:34.961Z,46.33
2023-02-15T19:45:14.479Z,38.70
2023-02-15T19:47:43.655Z,41.00
2023-02-15T19:50:16.436Z,41.10
2023-02-15T19:52:45.343Z,42.57
2023-02-15T19:55:22.595Z,43.73
2023-02-15T19:57:52.453Z,43.67
2023-02-15T20:00:25.963Z,44.93
2023-02-15T20:02:55.130Z,45.33
2023-02-15T20:05:24.620Z,44.70
2023-02-15T20:07:54.517Z,45.87
2023-02-15T20:10:25.092Z,43.97
2023-02-15T20:12:54.003Z,43.67
2023-02-15T20:15:27.301Z,48.10
2023-02-15T20:17:57.415Z,44.03
2023-02-15T20:20:30.491Z,44.93
2023-02-15T20:23:00.491Z,44.20
2023-02-15T20:25:30.215Z,48.37
2023-02-15T20:27:59.477Z,48.00
2023-02-15T20:30:31.462Z,47.93
2023-02-15T20:33:00.096Z,52.70
2023-02-15T20:35:30.204Z,47.90
2023-02-15T20:38:00.586Z,51.50
2023-02-15T20:40:31.626Z,48.77
2023-02-15T20:42:59.998Z,45.37
2023-02-15T20:45:31.454Z,43.80
2023-02-15T20:48:02.135Z,49.20
2023-02-15T20:50:33.443Z,44.67
2023-02-15T20:53:03.722Z,48.20
2023-02-15T20:55:33.875Z,45.30
2023-02-15T20:58:02.678Z,42.67
2023-02-15T21:00:33.430Z,44.20
2023-02-15T21:03:03.169Z,47.57
2023-02-15T21:05:34.203Z,48.10
2023-02-15T21:08:03.956Z,45.47
2023-02-15T21:10:35.809Z,51.47
2023-02-15T21:13:05.026Z,45.57
2023-02-15T21:15:36.477Z,45.03
2023-02-15T21:18:07.133Z,46.07
2023-02-15T21:20:37.269Z,43.97
2023-02-15T21:23:07.363Z,48.50
2023-02-15T21:25:38.388Z,45.13
2023-02-15T21:28:08.823Z,48.97
2023-02-15T21:30:38.708Z,49.47
2023-02-15T21:33:07.006Z,45.00
2023-02-15T21:35:38.118Z,48.17
2023-02-15T21:38:08.105Z,45.73
2023-02-15T21:40:36.369Z,51.77
2023-02-15T21:43:24.786Z,50.33
2023-02-15T21:46:12.237Z,47.03
2023-02-15T21:48:40.852Z,45.70
2023-02-15T21:51:27.460Z,45.57
2023-02-15T21:53:56.007Z,44.87
2023-02-15T21:56:28.182Z,46.60
2023-02-15T21:58:56.390Z,46.13
2023-02-15T22:01:28.453Z,50.47
2023-02-15T22:03:59.341Z,46.17
2023-02-15T22:06:27.606Z,45.20
2023-02-15T22:08:57.031Z,48.13
2023-02-15T22:11:25.646Z,45.00
2023-02-15T22:13:53.731Z,45.97
2023-02-15T22:16:24.754Z,45.90
2023-02-15T22:18:54.705Z,43.90
2023-02-15T22:21:26.767Z,49.23
2023-02-15T22:23:55.118Z,47.37
2023-02-15T22:26:26.466Z,43.60
2023-02-15T22:28:55.343Z,49.20
2023-02-15T22:31:24.774Z,50.80
2023-02-15T22:33:55.563Z,44.37
2023-02-15T22:36:26.225Z,45.43
2023-02-15T22:38:55.226Z,43.83
2023-02-15T22:41:28.596Z,49.83
2023-02-15T22:43:59.028Z,48.37
2023-02-15T22:46:27.933Z,46.23
2023-02-15T22:48:57.650Z,44.27
2023-02-15T22:51:26.815Z,42.13
2023-02-15T22:53:55.571Z,49.93
2023-02-15T22:56:29.108Z,48.47
2023-02-15T22:59:02.562Z,54.30
2023-02-15T23:01:33.278Z,50.33
2023-02-15T23:04:05.322Z,53.67
2023-02-15T23:06:34.726Z,41.47
2023-02-15T23:09:03.267Z,50.17
2023-02-15T23:11:34.144Z,46.07
2023-02-15T23:14:04.260Z,47.33
2023-02-15T23:16:35.072Z,48.47
2023-02-15T23:19:04.821Z,46.60
2023-02-15T23:21:35.138Z,51.50
2023-02-15T23:24:19.978Z,46.83
2023-02-15T23:26:49.115Z,49.57
2023-02-15T23:29:20.353Z,50.30
2023-02-15T23:31:51.680Z,49.17
2023-02-15T23:34:25.825Z,48.33
2023-02-15T23:36:54.190Z,44.83
2023-02-15T23:39:42.161Z,51.60
2023-02-15T23:42:14.571Z,47.97
2023-02-15T23:44:45.141Z,53.03
2023-02-15T23:47:21.641Z,56.90
2023-02-15T23:49:51.345Z,43.17
2023-02-15T23:52:19.534Z,50.17
2023-02-15T23:54:47.794Z,46.00
2023-02-15T23:57:16.117Z,46.23
2023-02-15T23:59:46.578Z,46.40
